This is the latest recevied weather packets stored in our database for station/object WS4FSC-7. If no packets are shown the sender has not sent any weather packets the latest 10 day(s).
| Time | Temp. | Humidity | Pressure | Rain* | Wind** | Luminosity | Snow |
|---|---|---|---|---|---|---|---|
| 1788200631 | 32.22° C | 67% | 1015 hPa | - | - | 259 W/m² | - |
| 1788200451 | 32.22° C | 67% | 1015 hPa | - | - | 290 W/m² | - |
| 1788200091 | 32.78° C | 66% | 1015 hPa | - | - | 994 W/m² | - |
| 1788199191 | 31.67° C | 71% | 1015 hPa | - | - | 850 W/m² | - |
| 1788198831 | 32.22° C | - | - | - | - | - | - |
| 1788198111 | 32.22° C | 69% | 1015 hPa | - | - | 958 W/m² | - |
| 1788197931 | 31.67° C | 71% | 1015 hPa | - | - | 909 W/m² | - |
| 1788197751 | 31.67° C | 72% | 1015 hPa | - | - | 949 W/m² | - |
| 1788197212 | 31.11° C | 73% | 1015 hPa | - | - | 927 W/m² | - |
| 1788197031 | 31.67° C | 72% | 1015 hPa | - | - | 925 W/m² | - |
| 1788196490 | 31.11° C | 74% | 1015 hPa | - | - | 907 W/m² | - |
| 1788196150 | 31.11° C | 75% | 1015 hPa | - | - | 895 W/m² | - |
| 1788195950 | 31.11° C | 74% | 1015 hPa | - | - | 880 W/m² | - |
| 1788195590 | 31.11° C | 73% | 1015 hPa | - | - | 805 W/m² | - |
| 1788195232 | 30.56° C | 75% | 1015 hPa | - | - | 934 W/m² | - |
| 1788195052 | 31.11° C | 74% | 1015 hPa | - | - | 919 W/m² | - |
| 1788194691 | 30.56° C | 76% | 1016 hPa | - | - | 844 W/m² | - |
| 1788194511 | 30.56° C | 77% | 1015 hPa | - | - | 621 W/m² | - |
| 1788194331 | 30.56° C | 76% | 1016 hPa | - | - | 664 W/m² | - |
| 1788193611 | 30° C | 78% | 1016 hPa | - | - | 421 W/m² | - |
| 1788193251 | 30° C | 79% | 1016 hPa | - | - | 309 W/m² | - |
| 1788192531 | 30° C | 79% | 1016 hPa | - | - | 270 W/m² | - |
| 1788192350 | 30° C | 79% | 1016 hPa | - | - | 266 W/m² | - |
| 1788191631 | 30.56° C | 77% | 1016 hPa | - | - | 302 W/m² | - |
| 1788191271 | 30.56° C | 77% | 1016 hPa | - | - | 251 W/m² | - |
* Rain since midnight (hover to see other rain measurements)
** Current wind speed in m/s (hover to see current wind gust speed)